Time;durP1;ratioP1;P1;durP2;ratioP2;P2;SDS_P1;SDS_P2;PMS_P1;PMS_P2;Temp;Humidity;BMP_temperature;BMP_pressure;BME280_temperature;BME280_humidity;BME280_pressure;Samples;Min_cycle;Max_cycle;Signal;HPM_P1;HPM_P2
2023/01/27 00:00:57;;;;;;;14.00;8.80;;;;;;;0.56;100.00;62058.88;4991078;28;20208;-81
2023/01/27 00:03:25;;;;;;;14.80;8.95;;;;;;;0.63;100.00;62063.03;4993014;28;20204;-80
2023/01/27 00:05:52;;;;;;;12.05;8.82;;;;;;;0.50;100.00;62052.22;4985320;28;20204;-80
2023/01/27 00:08:19;;;;;;;13.65;8.52;;;;;;;0.56;100.00;62056.38;4980054;28;20208;-82
2023/01/27 00:13:25;;;;;;;14.32;9.15;;;;;;;0.59;100.00;62061.94;4992048;28;20200;-80
2023/01/27 00:13:32;;;;;;;17.95;10.05;;;;;;;0.63;100.00;62063.03;4992362;28;20223;-83
2023/01/27 00:15:59;;;;;;;13.75;9.30;;;;;;;0.60;100.00;62057.47;4993012;28;20230;-81
2023/01/27 00:18:28;;;;;;;14.20;8.98;;;;;;;0.43;100.00;62040.03;4986790;28;20215;-83
2023/01/27 00:26:24;;;;;;;12.25;8.40;;;;;;;0.24;100.00;62028.59;4977215;28;20230;-81
2023/01/27 00:28:51;;;;;;;12.70;9.20;;;;;;;0.00;100.00;62001.47;4984340;28;20205;-80
2023/01/27 00:34:08;;;;;;;15.27;9.15;;;;;;;0.12;100.00;62013.78;4976966;28;20551;-81
2023/01/27 00:36:36;;;;;;;14.98;8.88;;;;;;;-0.14;100.00;61979.63;4980280;28;20232;-80
2023/01/27 00:39:03;;;;;;;16.15;9.00;;;;;;;0.06;100.00;62007.63;4990584;28;20204;-81
2023/01/27 00:41:30;;;;;;;15.20;9.43;;;;;;;0.00;100.00;61996.97;4990381;28;20243;-79
2023/01/27 00:43:59;;;;;;;12.20;8.48;;;;;;;-0.07;100.00;61997.31;4977867;28;20204;-81
2023/01/27 00:46:26;;;;;;;11.77;7.82;;;;;;;0.16;100.00;62015.38;4989369;28;20234;-80
2023/01/27 00:48:53;;;;;;;13.00;8.77;;;;;;;0.20;100.00;62019.47;4976033;28;20217;-82
2023/01/27 00:51:22;;;;;;;11.48;7.97;;;;;;;0.24;100.00;62023.56;4972449;29;20217;-82
2023/01/27 00:53:49;;;;;;;16.10;8.80;;;;;;;0.38;100.00;62034.91;4978730;28;20248;-80
2023/01/27 00:56:16;;;;;;;12.13;8.55;;;;;;;0.38;100.00;62037.41;4990163;28;20231;-81
2023/01/27 00:58:43;;;;;;;13.25;8.65;;;;;;;0.50;100.00;62052.72;4981826;28;20208;-83
2023/01/27 01:01:12;;;;;;;11.93;8.00;;;;;;;0.50;100.00;62049.72;4984312;28;20234;-80
2023/01/27 01:03:39;;;;;;;13.07;8.55;;;;;;;0.58;100.00;62058.44;4990098;28;20208;-81
2023/01/27 01:06:08;;;;;;;15.30;8.73;;;;;;;0.66;100.00;62068.59;4990722;28;20235;-82
2023/01/27 01:08:38;;;;;;;15.77;8.75;;;;;;;0.59;100.00;62056.94;4976389;28;20212;-82
2023/01/27 01:11:06;;;;;;;13.68;9.27;;;;;;;0.46;100.00;62043.09;4971789;28;20228;-82
2023/01/27 01:13:34;;;;;;;14.00;9.38;;;;;;;0.38;100.00;62037.91;4990532;28;20236;-80
2023/01/27 01:16:05;;;;;;;15.90;9.98;;;;;;;0.20;100.00;62021.47;4979874;28;20292;-81
2023/01/27 01:18:32;;;;;;;16.52;9.07;;;;;;;0.36;100.00;62032.84;4971292;28;20251;-80
2023/01/27 01:21:01;;;;;;;15.73;9.77;;;;;;;0.43;100.00;62047.53;4978460;28;20200;-82
2023/01/27 01:23:28;;;;;;;14.55;9.45;;;;;;;0.30;100.00;62032.22;4977885;28;20217;-82
2023/01/27 01:25:58;;;;;;;16.10;9.52;;;;;;;0.34;100.00;62033.81;4971861;28;20203;-82
2023/01/27 01:28:25;;;;;;;14.85;9.88;;;;;;;0.35;100.00;62034.84;4985343;28;20220;-81
2023/01/27 01:30:53;;;;;;;16.05;9.60;;;;;;;0.41;100.00;62040.47;4990051;28;20216;-80
2023/01/27 01:33:20;;;;;;;17.10;9.75;;;;;;;0.40;100.00;62039.47;4973629;28;20232;-81
2023/01/27 01:35:47;;;;;;;14.35;8.63;;;;;;;0.37;100.00;62041.91;4983390;28;20555;-81
2023/01/27 01:38:14;;;;;;;14.95;9.20;;;;;;;0.24;100.00;62023.06;4972179;28;20219;-81
2023/01/27 01:40:41;;;;;;;13.13;8.25;;;;;;;0.28;100.00;62024.66;4990475;28;20283;-80
2023/01/27 01:43:15;;;;;;;13.50;9.05;;;;;;;0.38;100.00;62035.41;4978884;28;20239;-80
2023/01/27 01:45:48;;;;;;;12.43;8.57;;;;;;;0.43;100.00;62040.53;4974498;28;20204;-80
2023/01/27 01:48:20;;;;;;;17.70;9.70;;;;;;;0.47;100.00;62049.66;4986126;28;20210;-80
2023/01/27 01:50:51;;;;;;;15.07;9.10;;;;;;;0.47;100.00;62046.63;4970257;29;20229;-79
2023/01/27 01:53:20;;;;;;;15.48;9.05;;;;;;;0.53;100.00;62053.31;4988747;28;20299;-80
2023/01/27 01:55:48;;;;;;;14.23;9.65;;;;;;;0.40;100.00;62037.47;4988613;28;20239;-80
2023/01/27 01:58:19;;;;;;;17.90;9.15;;;;;;;0.36;100.00;62033.38;4981486;28;20196;-80
2023/01/27 02:00:47;;;;;;;16.30;8.63;;;;;;;0.07;100.00;62006.13;4978037;28;20509;-81
2023/01/27 02:03:15;;;;;;;15.10;9.05;;;;;;;-0.08;100.00;61988.28;4988916;28;20208;-81
2023/01/27 02:05:44;;;;;;;13.15;9.02;;;;;;;0.08;100.00;62006.66;4981471;28;20208;-79
2023/01/27 02:08:16;;;;;;;12.98;8.60;;;;;;;-0.11;100.00;61985.72;4987323;28;20212;-80
2023/01/27 02:10:43;;;;;;;13.65;8.60;;;;;;;0.11;100.00;62012.22;4983003;28;20268;-80
2023/01/27 02:13:11;;;;;;;13.85;8.48;;;;;;;0.00;100.00;62001.97;4969705;28;20236;-80
2023/01/27 02:15:40;;;;;;;15.52;10.38;;;;;;;0.09;100.00;62012.69;4981125;28;20208;-82
2023/01/27 02:18:08;;;;;;;14.13;9.05;;;;;;;-0.09;100.00;61987.25;4989301;28;20261;-79
2023/01/27 02:20:43;;;;;;;15.88;9.85;;;;;;;0.00;100.00;61996.97;4990419;28;20203;-80
2023/01/27 02:23:20;;;;;;;18.80;10.93;;;;;;;-0.18;100.00;61983.03;4988233;28;20199;-82
2023/01/27 02:25:53;;;;;;;14.75;10.00;;;;;;;-0.24;100.00;61971.88;4986406;28;20211;-81
2023/01/27 02:28:20;;;;;;;13.48;9.68;;;;;;;-0.65;100.00;61934.88;4979167;28;20521;-81
2023/01/27 02:30:47;;;;;;;13.52;9.65;;;;;;;-0.39;100.00;61957.03;4970243;29;20380;-80
2023/01/27 02:33:16;;;;;;;18.90;11.15;;;;;;;-0.25;100.00;61973.34;4977782;28;20282;-82
2023/01/27 02:35:52;;;;;;;19.60;11.65;;;;;;;-0.14;100.00;61987.13;4976058;28;20212;-82
2023/01/27 02:38:19;;;;;;;17.40;11.05;;;;;;;-0.02;100.00;61997.44;4980140;28;20275;-81
2023/01/27 02:40:48;;;;;;;15.82;10.48;;;;;;;0.07;100.00;62003.13;4989567;28;20216;-82
2023/01/27 02:43:17;;;;;;;14.93;10.00;;;;;;;0.12;100.00;62013.25;4987751;28;20215;-81
2023/01/27 02:45:46;;;;;;;23.75;11.55;;;;;;;0.28;100.00;62025.16;4979673;28;20200;-80
2023/01/27 02:48:13;;;;;;;17.75;10.15;;;;;;;0.29;100.00;62031.22;4979173;28;20210;-82
2023/01/27 02:50:41;;;;;;;16.92;10.45;;;;;;;0.15;100.00;62013.84;4987399;28;20231;-82
2023/01/27 02:53:08;;;;;;;18.92;10.82;;;;;;;0.15;100.00;62014.34;4987578;28;20231;-80
2023/01/27 02:55:35;;;;;;;14.65;9.50;;;;;;;-0.07;100.00;61994.81;4975039;28;20200;-81
2023/01/27 02:58:02;;;;;;;16.25;10.63;;;;;;;0.05;100.00;62001.09;4975723;28;20216;-82
2023/01/27 03:00:31;;;;;;;17.50;10.38;;;;;;;0.03;100.00;62002.56;4985182;28;20208;-80
2023/01/27 03:02:57;;;;;;;16.38;10.75;;;;;;;-0.01;100.00;61998.47;4992142;28;20424;-80
2023/01/27 03:05:26;;;;;;;15.45;10.23;;;;;;;0.07;100.00;62008.13;4992282;28;20466;-80
2023/01/27 03:07:53;;;;;;;14.82;9.50;;;;;;;0.12;100.00;62013.78;4992632;28;20263;-81
2023/01/27 03:10:20;;;;;;;18.23;10.95;;;;;;;-0.10;100.00;61983.72;4990829;28;20208;-81
2023/01/27 03:12:48;;;;;;;17.08;11.00;;;;;;;-0.15;100.00;61986.09;4993810;28;20235;-80
2023/01/27 03:18:14;;;;;;;17.48;11.75;;;;;;;-0.10;100.00;61986.22;4975954;28;20302;-82
2023/01/27 03:20:42;;;;;;;18.73;11.15;;;;;;;-0.32;100.00;61963.69;4973355;29;20213;-81
2023/01/27 03:23:10;;;;;;;12.32;9.38;;;;;;;-0.42;100.00;61958.44;4973402;28;20205;-81
2023/01/27 03:25:41;;;;;;;15.93;9.27;;;;;;;-0.36;100.00;61965.09;4992475;28;20232;-80
2023/01/27 03:28:09;;;;;;;18.92;10.85;;;;;;;-0.46;100.00;61951.84;4991912;28;20569;-81
2023/01/27 03:30:36;;;;;;;18.08;10.50;;;;;;;-0.58;100.00;61937.06;4981486;28;20279;-79
2023/01/27 03:33:07;;;;;;;15.65;10.35;;;;;;;-0.61;100.00;61938.97;4986373;28;20236;-80
2023/01/27 03:35:37;;;;;;;14.93;10.38;;;;;;;-0.39;100.00;61957.03;4975604;28;20260;-83
2023/01/27 03:46:21;;;;;;;16.27;8.50;;;;;;;-0.13;100.00;61983.16;4983035;28;20272;-80
2023/01/27 03:48:51;;;;;;;12.90;8.98;;;;;;;-0.07;100.00;61994.31;4972611;28;20201;-79
2023/01/27 03:51:19;;;;;;;15.50;9.05;;;;;;;0.00;100.00;61998.97;4973253;28;20220;-81
2023/01/27 03:53:46;;;;;;;14.45;9.85;;;;;;;-0.03;100.00;61998.41;4981775;28;20468;-81
2023/01/27 03:56:14;;;;;;;10.68;8.45;;;;;;;-0.26;100.00;61977.84;4975250;28;20251;-82
2023/01/27 03:58:42;;;;;;;11.68;8.88;;;;;;;-0.33;100.00;61967.66;4972325;28;20208;-80
2023/01/27 04:01:15;;;;;;;14.52;8.60;;;;;;;-0.42;100.00;61950.94;4981169;28;20236;-82
2023/01/27 04:09:20;;;;;;;11.77;8.95;;;;;;;-0.54;100.00;61944.16;4981683;28;20199;-82
2023/01/27 04:11:57;;;;;;;15.85;8.75;;;;;;;-0.38;100.00;61962.56;4984288;28;20402;-80
2023/01/27 04:14:27;;;;;;;11.35;8.90;;;;;;;-0.19;100.00;61977.50;4990559;28;20299;-81
2023/01/27 04:16:56;;;;;;;9.50;7.45;;;;;;;-0.03;100.00;62000.91;4984414;28;20220;-81
2023/01/27 04:19:23;;;;;;;10.45;7.53;;;;;;;-0.19;100.00;61979.50;4976979;28;20222;-81
2023/01/27 04:21:52;;;;;;;10.55;7.90;;;;;;;-0.17;100.00;61984.03;4986036;28;20548;-82
2023/01/27 04:24:23;;;;;;;9.60;7.15;;;;;;;-0.02;100.00;61999.94;4985628;28;20287;-81
2023/01/27 04:26:55;;;;;;;10.43;7.53;;;;;;;0.05;100.00;62004.09;4990852;28;20575;-80
2023/01/27 04:29:24;;;;;;;10.85;7.53;;;;;;;0.20;100.00;62016.97;4982332;28;20201;-81
2023/01/27 04:31:51;;;;;;;14.38;7.63;;;;;;;0.15;100.00;62018.84;4987098;28;20223;-81
2023/01/27 04:34:18;;;;;;;13.48;8.10;;;;;;;0.19;100.00;62020.44;4974105;28;20232;-83
2023/01/27 04:36:46;;;;;;;10.55;7.05;;;;;;;0.14;100.00;62010.81;4984442;28;20221;-81
2023/01/27 04:39:15;;;;;;;12.32;7.75;;;;;;;-0.15;100.00;61981.63;4990446;28;20200;-82
2023/01/27 04:41:43;;;;;;;8.93;6.75;;;;;;;-0.30;100.00;61968.25;4987764;28;20556;-81
2023/01/27 04:44:11;;;;;;;14.35;8.45;;;;;;;-0.20;100.00;61980.97;4986661;28;20210;-82
2023/01/27 04:46:38;;;;;;;10.75;8.10;;;;;;;0.00;100.00;62001.47;4985378;28;20394;-82
2023/01/27 04:49:05;;;;;;;10.65;7.90;;;;;;;0.10;100.00;62006.22;4990223;28;20218;-81
2023/01/27 04:51:34;;;;;;;12.02;8.68;;;;;;;0.18;100.00;62017.41;4990039;28;20302;-84
2023/01/27 04:54:02;;;;;;;15.10;9.60;;;;;;;0.26;100.00;62030.63;4982854;28;20288;-84
2023/01/27 04:56:33;;;;;;;14.88;9.35;;;;;;;0.43;100.00;62045.53;4973593;28;20239;-81
2023/01/27 04:59:01;;;;;;;12.13;9.45;;;;;;;0.45;100.00;62042.09;4976899;28;20416;-81
2023/01/27 05:01:29;;;;;;;12.48;9.02;;;;;;;0.57;100.00;62054.38;4971383;29;20244;-83
2023/01/27 05:03:56;;;;;;;15.25;10.07;;;;;;;0.56;100.00;62055.84;4983339;28;20240;-81
2023/01/27 05:06:24;;;;;;;15.02;8.65;;;;;;;0.68;100.00;62070.66;4990020;28;20283;-84
2023/01/27 05:08:52;;;;;;;13.32;8.85;;;;;;;0.47;100.00;62047.16;4985459;28;20232;-81
2023/01/27 05:11:20;;;;;;;14.80;9.27;;;;;;;0.16;100.00;62017.88;4980792;28;20228;-81
2023/01/27 05:13:48;;;;;;;16.27;8.73;;;;;;;-0.05;100.00;61996.84;4989077;28;20251;-83
2023/01/27 05:16:17;;;;;;;13.90;9.63;;;;;;;-0.08;100.00;61991.28;4987690;28;20226;-81
2023/01/27 05:18:46;;;;;;;14.25;9.93;;;;;;;-0.30;100.00;61968.25;4986217;28;20260;-82
2023/01/27 05:21:15;;;;;;;15.80;10.80;;;;;;;-0.18;100.00;61983.03;4976168;28;20250;-81
2023/01/27 05:23:42;;;;;;;12.52;8.93;;;;;;;-0.07;100.00;61989.81;4988597;28;20208;-83
2023/01/27 05:26:12;;;;;;;12.73;9.55;;;;;;;-0.12;100.00;61986.66;4975267;28;20283;-81
2023/01/27 05:28:41;;;;;;;17.88;10.75;;;;;;;-0.07;100.00;61984.81;4986526;28;20233;-83
2023/01/27 05:31:12;;;;;;;13.95;10.15;;;;;;;0.04;100.00;62005.56;4989377;28;20283;-80
2023/01/27 05:33:41;;;;;;;14.40;10.80;;;;;;;0.16;100.00;62012.34;4992097;28;20228;-83
2023/01/27 05:36:10;;;;;;;14.07;9.25;;;;;;;0.15;100.00;62016.34;4991943;28;20224;-81
2023/01/27 05:38:37;;;;;;;14.18;9.80;;;;;;;-0.23;100.00;61975.94;4994465;28;20267;-82
2023/01/27 05:41:06;;;;;;;14.30;9.20;;;;;;;-0.39;100.00;61959.00;4991702;28;20275;-83
2023/01/27 05:43:35;;;;;;;13.65;9.57;;;;;;;-0.09;100.00;61987.25;4981491;28;20207;-85
2023/01/27 05:46:04;;;;;;;15.70;9.55;;;;;;;0.04;100.00;62003.06;4984976;28;20276;-80
2023/01/27 05:48:33;;;;;;;13.98;8.88;;;;;;;0.06;100.00;62002.09;4992324;28;20260;-83
2023/01/27 05:51:01;;;;;;;13.15;8.98;;;;;;;0.19;100.00;62020.94;4981000;28;20232;-83
2023/01/27 05:53:28;;;;;;;13.32;8.60;;;;;;;0.26;100.00;62022.59;4972335;28;20216;-84
2023/01/27 05:55:55;;;;;;;14.52;9.43;;;;;;;0.26;100.00;62025.63;4977764;28;20244;-81
2023/01/27 05:58:23;;;;;;;17.13;10.27;;;;;;;0.31;100.00;62030.72;4985362;28;20209;-80
2023/01/27 06:00:50;;;;;;;13.35;9.25;;;;;;;0.44;100.00;62043.56;4978405;28;20474;-79
2023/01/27 06:03:17;;;;;;;15.43;10.00;;;;;;;0.51;100.00;62048.22;4980831;28;20216;-82
2023/01/27 06:05:56;;;;;;;17.83;10.88;;;;;;;0.55;100.00;62059.84;4984376;28;20356;-84
2023/01/27 06:08:25;;;;;;;16.05;10.43;;;;;;;0.39;100.00;62035.94;4979160;28;20200;-79
2023/01/27 06:10:53;;;;;;;16.90;10.20;;;;;;;0.28;100.00;62027.16;4991005;28;20200;-82
2023/01/27 06:13:22;;;;;;;16.42;9.55;;;;;;;0.41;100.00;62043.50;4981328;28;20213;-81
2023/01/27 06:15:50;;;;;;;16.95;10.52;;;;;;;0.41;100.00;62036.00;4977538;28;20254;-80
2023/01/27 06:18:19;;;;;;;20.23;10.55;;;;;;;0.46;100.00;62048.63;4986282;28;20256;-81
2023/01/27 06:20:46;;;;;;;14.98;9.75;;;;;;;0.62;100.00;62059.50;4975969;28;20205;-83
2023/01/27 06:23:17;;;;;;;20.58;10.60;;;;;;;0.72;100.00;62074.78;4985624;28;20204;-81
2023/01/27 06:25:47;;;;;;;18.65;9.43;;;;;;;0.75;100.00;62078.38;4980185;28;20228;-81
2023/01/27 06:28:15;;;;;;;15.50;9.48;;;;;;;0.88;100.00;62089.19;4974108;28;20197;-80
2023/01/27 06:30:42;;;;;;;13.38;8.63;;;;;;;0.94;100.00;62097.84;4984995;28;20208;-82
2023/01/27 06:33:10;;;;;;;15.75;8.90;;;;;;;0.95;100.00;62098.88;4979387;28;20243;-82
2023/01/27 06:35:39;;;;;;;16.40;10.00;;;;;;;0.96;100.00;62096.88;4979801;28;20229;-83
2023/01/27 06:38:08;;;;;;;14.70;9.27;;;;;;;0.73;100.00;62073.81;4975919;28;20272;-83
2023/01/27 06:40:37;;;;;;;15.57;10.15;;;;;;;0.54;100.00;62051.81;4984429;28;20214;-82
2023/01/27 06:43:04;;;;;;;15.02;8.40;;;;;;;0.68;100.00;62066.19;4975914;28;20220;-80
2023/01/27 06:45:31;;;;;;;9.60;6.78;;;;;;;0.64;100.00;62064.06;4980222;28;20200;-80
2023/01/27 06:47:59;;;;;;;8.43;6.70;;;;;;;0.71;100.00;62074.25;4971535;28;20225;-81
2023/01/27 06:50:28;;;;;;;9.48;7.57;;;;;;;0.80;100.00;62078.47;4979836;28;20208;-83
2023/01/27 06:53:01;;;;;;;12.52;7.20;;;;;;;0.36;100.00;62035.88;4982203;28;20228;-80
2023/01/27 06:55:29;;;;;;;12.05;7.57;;;;;;;0.31;100.00;62030.25;4979712;28;20220;-82
2023/01/27 06:57:57;;;;;;;8.65;6.47;;;;;;;0.52;100.00;62047.25;4977987;28;20224;-83
2023/01/27 07:00:25;;;;;;;8.75;6.18;;;;;;;0.64;100.00;62061.56;4979398;28;20378;-83
2023/01/27 07:02:54;;;;;;;9.23;6.13;;;;;;;0.67;100.00;62069.66;4976573;28;20235;-81
2023/01/27 07:05:21;;;;;;;9.48;7.30;;;;;;;0.59;100.00;62061.94;4978299;28;20204;-80
2023/01/27 07:07:48;;;;;;;7.20;6.30;;;;;;;0.73;100.00;62075.78;4969422;28;20244;-78
2023/01/27 07:10:15;;;;;;;7.47;6.60;;;;;;;0.52;100.00;62057.28;4974332;28;20622;-79
2023/01/27 07:12:42;;;;;;;9.93;6.90;;;;;;;0.69;100.00;62074.69;4975669;28;20380;-80
2023/01/27 07:15:12;;;;;;;8.85;6.47;;;;;;;0.78;100.00;62073.91;4974790;28;20232;-82
2023/01/27 07:17:39;;;;;;;9.25;6.95;;;;;;;0.90;100.00;62091.22;4980638;28;20232;-78
2023/01/27 07:20:08;;;;;;;9.80;6.90;;;;;;;0.94;100.00;62094.81;4969990;28;20213;-79
2023/01/27 07:22:35;;;;;;;6.57;5.70;;;;;;;0.97;100.00;62100.91;4981326;28;20224;-83
2023/01/27 07:25:02;;;;;;;8.95;6.40;;;;;;;1.03;100.00;62102.06;4984202;28;20216;-82
2023/01/27 07:27:29;;;;;;;10.05;6.07;;;;;;;1.08;100.00;62112.22;4988105;28;20287;-82
2023/01/27 07:29:57;;;;;;;8.60;6.35;;;;;;;1.09;100.00;62115.22;4975844;28;20205;-79
2023/01/27 07:32:25;;;;;;;8.20;6.50;;;;;;;1.13;100.00;62114.84;4977759;28;20268;-81
2023/01/27 07:34:52;;;;;;;9.43;6.70;;;;;;;0.82;100.00;62085.03;4981381;28;20291;-80
2023/01/27 07:37:19;;;;;;;8.50;6.70;;;;;;;0.68;100.00;62066.19;4977505;28;20240;-81
2023/01/27 07:39:47;;;;;;;10.57;7.03;;;;;;;0.44;100.00;62043.56;4974891;28;20376;-82
2023/01/27 07:42:14;;;;;;;10.57;6.78;;;;;;;0.66;100.00;62071.13;4972893;28;20273;-83
2023/01/27 07:44:40;;;;;;;9.00;6.28;;;;;;;0.84;100.00;62084.56;4984602;28;20212;-83
2023/01/27 07:47:08;;;;;;;9.80;7.32;;;;;;;0.97;100.00;62103.44;4985342;28;20228;-83
2023/01/27 07:49:36;;;;;;;10.00;7.68;;;;;;;1.10;100.00;62113.75;4988996;28;20196;-82
2023/01/27 07:52:03;;;;;;;9.10;7.55;;;;;;;0.77;100.00;62077.91;4987361;28;20252;-84
2023/01/27 07:54:30;;;;;;;10.55;7.30;;;;;;;0.36;100.00;62033.38;4981253;28;20549;-81
2023/01/27 07:57:00;;;;;;;9.30;6.50;;;;;;;0.30;100.00;62032.22;4980049;28;20221;-82
2023/01/27 07:59:28;;;;;;;8.65;6.18;;;;;;;0.50;100.00;62054.72;4977819;28;20208;-82
2023/01/27 08:01:55;;;;;;;8.80;7.03;;;;;;;0.63;100.00;62063.56;4992303;28;20235;-82
2023/01/27 08:04:22;;;;;;;7.18;5.32;;;;;;;0.75;100.00;62075.34;4993311;28;20218;-80
2023/01/27 08:06:50;;;;;;;10.25;7.32;;;;;;;0.27;100.00;62026.66;4991602;28;20220;-83
2023/01/27 08:09:17;;;;;;;11.25;8.18;;;;;;;0.22;100.00;62018.50;4992703;28;20235;-80
2023/01/27 08:11:44;;;;;;;9.63;7.63;;;;;;;0.42;100.00;62041.50;4994631;28;20283;-81
2023/01/27 08:14:11;;;;;;;7.60;5.85;;;;;;;0.37;100.00;62031.88;4993915;28;20247;-82
2023/01/27 08:16:38;;;;;;;15.10;9.43;;;;;;;0.19;100.00;62015.44;4991489;28;20215;-82
2023/01/27 08:19:05;;;;;;;12.75;9.35;;;;;;;0.33;100.00;62032.28;4994302;28;20208;-82
2023/01/27 08:21:32;;;;;;;8.73;6.68;;;;;;;0.06;100.00;62007.63;4991569;28;20227;-82
2023/01/27 08:24:01;;;;;;;12.23;7.20;;;;;;;0.04;100.00;62003.06;4992675;28;20204;-82
2023/01/27 08:26:28;;;;;;;17.75;7.93;;;;;;;-0.07;100.00;61994.81;4991961;28;20238;-82
2023/01/27 08:28:55;;;;;;;10.40;7.63;;;;;;;-0.21;100.00;61975.47;4985254;28;20414;-81
2023/01/27 08:31:22;;;;;;;10.68;7.00;;;;;;;0.15;100.00;62016.84;4984989;28;20349;-81
2023/01/27 08:33:53;;;;;;;11.98;6.47;;;;;;;0.17;100.00;62015.88;4993274;28;20208;-81
2023/01/27 08:36:22;;;;;;;8.63;6.13;;;;;;;0.22;100.00;62021.53;4992651;28;20282;-82
2023/01/27 08:38:49;;;;;;;9.05;6.53;;;;;;;0.13;100.00;62011.78;4993177;28;20255;-81
2023/01/27 08:41:21;;;;;;;7.28;5.30;;;;;;;0.24;100.00;62025.56;4994934;28;20224;-83
2023/01/27 08:43:49;;;;;;;15.35;7.50;;;;;;;-0.08;100.00;61991.28;4991381;28;20243;-82
2023/01/27 08:46:17;;;;;;;12.80;7.20;;;;;;;0.04;100.00;62000.56;4991617;28;20224;-81
2023/01/27 08:48:44;;;;;;;17.20;9.00;;;;;;;-0.15;100.00;61986.09;4993544;28;20204;-81
2023/01/27 08:51:14;;;;;;;10.10;7.07;;;;;;;0.10;100.00;62011.22;4991285;28;20304;-80
2023/01/27 08:53:41;;;;;;;10.73;7.30;;;;;;;0.14;100.00;62017.81;4992854;28;20212;-82
2023/01/27 08:56:11;;;;;;;13.07;6.60;;;;;;;0.12;100.00;62010.75;4991668;28;20240;-80
2023/01/27 08:58:39;;;;;;;9.73;7.30;;;;;;;0.44;100.00;62041.06;4992396;28;20196;-81
2023/01/27 09:01:07;;;;;;;11.25;7.70;;;;;;;0.62;100.00;62067.03;4988082;28;20259;-82
2023/01/27 09:03:35;;;;;;;12.00;8.02;;;;;;;0.76;100.00;62073.88;4976399;28;20205;-81
2023/01/27 09:06:03;;;;;;;15.55;8.15;;;;;;;0.93;100.00;62094.31;4974664;28;20224;-81
2023/01/27 09:08:30;;;;;;;15.15;8.60;;;;;;;1.05;100.00;62103.63;4977703;28;20223;-81
2023/01/27 09:10:57;;;;;;;12.98;8.40;;;;;;;0.86;100.00;62087.13;4980228;28;20237;-81
2023/01/27 09:13:27;;;;;;;19.25;9.20;;;;;;;0.61;100.00;62064.00;4976984;28;20211;-83
2023/01/27 09:15:55;;;;;;;10.85;6.93;;;;;;;0.80;100.00;62080.97;4993924;28;20236;-82
2023/01/27 09:18:22;;;;;;;9.82;7.30;;;;;;;0.84;100.00;62082.59;4993860;28;20223;-80
2023/01/27 09:20:49;;;;;;;10.05;7.47;;;;;;;0.89;100.00;62092.22;4991525;28;20208;-82
2023/01/27 09:23:16;;;;;;;11.55;6.80;;;;;;;0.88;100.00;62086.19;4990245;28;20497;-81
2023/01/27 09:25:43;;;;;;;7.53;5.85;;;;;;;0.97;100.00;62098.41;4990878;28;20208;-81
2023/01/27 09:28:15;;;;;;;7.18;5.15;;;;;;;0.82;100.00;62083.03;4991956;28;20223;-81
2023/01/27 09:30:44;;;;;;;5.95;5.40;;;;;;;0.82;100.00;62085.03;4990848;28;20223;-81
2023/01/27 09:33:13;;;;;;;5.30;4.53;;;;;;;0.87;100.00;62088.16;4992893;28;20423;-82
2023/01/27 09:35:44;;;;;;;8.48;5.40;;;;;;;0.92;100.00;62093.28;4991346;28;20239;-80
2023/01/27 09:38:13;;;;;;;9.88;6.75;;;;;;;0.97;100.00;62098.41;4991375;28;20419;-81
2023/01/27 09:41:01;;;;;;;7.32;5.55;;;;;;;0.96;100.00;62097.41;4986461;28;20205;-79
2023/01/27 09:44:18;;;;;;;7.75;5.40;;;;;;;0.76;100.00;62079.38;4971664;28;20232;-83
2023/01/27 09:47:11;;;;;;;5.93;4.85;;;;;;;0.69;100.00;62067.19;4972483;28;20228;-80
2023/01/27 09:49:53;;;;;;;7.35;5.20;;;;;;;0.88;100.00;62089.19;4974310;28;20216;-82
2023/01/27 09:52:40;;;;;;;9.05;5.70;;;;;;;0.87;100.00;62085.66;4990666;28;20243;-81
2023/01/27 09:55:14;;;;;;;8.15;5.97;;;;;;;0.48;100.00;62047.66;4990802;28;20289;-81
2023/01/27 09:57:52;;;;;;;10.23;6.57;;;;;;;0.53;100.00;62055.81;4979171;28;20231;-81
2023/01/27 10:00:33;;;;;;;10.63;6.85;;;;;;;0.78;100.00;62076.44;4988801;28;20269;-81
2023/01/27 10:03:28;;;;;;;8.70;7.03;;;;;;;0.86;100.00;62089.13;4993152;28;20243;-81
2023/01/27 10:06:19;;;;;;;11.13;7.10;;;;;;;0.96;100.00;62097.41;4952048;28;20271;-82
2023/01/27 10:09:11;;;;;;;14.10;8.25;;;;;;;1.00;100.00;62096.47;4978791;28;20208;-81
2023/01/27 10:11:47;;;;;;;11.45;7.63;;;;;;;1.03;100.00;62104.06;4984952;28;20260;-81
2023/01/27 10:14:31;;;;;;;10.02;7.00;;;;;;;0.81;100.00;62081.50;4973521;28;20482;-84
2023/01/27 10:17:15;;;;;;;20.35;9.02;;;;;;;0.79;100.00;62077.47;4975230;28;20236;-83
2023/01/27 10:20:01;;;;;;;9.35;7.80;;;;;;;0.50;100.00;62052.72;4978411;28;20200;-80
2023/01/27 10:22:45;;;;;;;8.10;5.72;;;;;;;0.17;100.00;62013.38;4970896;28;20271;-79
2023/01/27 10:25:32;;;;;;;7.07;6.05;;;;;;;-0.02;100.00;61992.44;4990285;28;20200;-82
2023/01/27 10:28:08;;;;;;;8.23;4.75;;;;;;;-0.06;100.00;61995.84;4971929;28;20224;-83
2023/01/27 10:30:36;;;;;;;16.13;6.10;;;;;;;-0.08;100.00;61990.78;4986058;28;20239;-82
2023/01/27 10:33:13;;;;;;;11.52;6.43;;;;;;;0.13;100.00;62014.81;4986047;28;20286;-80
2023/01/27 10:35:47;;;;;;;10.13;6.50;;;;;;;0.23;100.00;62025.03;4986719;28;20239;-81
2023/01/27 10:38:27;;;;;;;7.85;5.97;;;;;;;0.26;100.00;62025.13;4980082;28;20278;-81
2023/01/27 10:41:04;;;;;;;9.98;6.30;;;;;;;-0.07;100.00;61994.81;4987737;28;20226;-82
2023/01/27 10:43:45;;;;;;;10.93;6.95;;;;;;;0.03;100.00;62002.06;4975918;28;20212;-81
2023/01/27 10:46:22;;;;;;;10.93;5.85;;;;;;;0.08;100.00;62009.69;4978485;28;20224;-82
2023/01/27 10:48:55;;;;;;;10.75;7.53;;;;;;;0.25;100.00;62024.59;4983282;28;20204;-83
2023/01/27 10:51:27;;;;;;;10.70;6.85;;;;;;;0.53;100.00;62055.81;4988769;28;20220;-85
2023/01/27 10:54:02;;;;;;;7.82;6.47;;;;;;;0.44;100.00;62043.56;4979517;28;20215;-84
2023/01/27 10:56:36;;;;;;;14.73;7.80;;;;;;;0.40;100.00;62042.47;4989881;28;20239;-82
2023/01/27 10:59:11;;;;;;;14.60;7.38;;;;;;;0.46;100.00;62046.13;4992172;28;20207;-82
2023/01/27 11:01:45;;;;;;;15.35;6.75;;;;;;;0.58;100.00;62057.91;4991071;28;20247;-84
2023/01/27 11:04:16;;;;;;;12.07;7.57;;;;;;;0.60;100.00;62059.97;4990812;28;20219;-82
2023/01/27 11:06:46;;;;;;;7.88;6.53;;;;;;;0.59;100.00;62056.41;4984311;28;20280;-82
2023/01/27 11:09:24;;;;;;;8.88;5.55;;;;;;;0.74;100.00;62077.31;4972160;29;20197;-82
2023/01/27 11:11:54;;;;;;;8.68;5.88;;;;;;;0.79;100.00;62079.44;4972698;28;20224;-84
2023/01/27 11:14:30;;;;;;;8.77;7.38;;;;;;;0.71;100.00;62073.72;4990594;28;20208;-83
2023/01/27 11:17:03;;;;;;;12.93;6.38;;;;;;;0.98;100.00;62099.44;4976926;29;20239;-80
2023/01/27 11:19:39;;;;;;;12.68;6.57;;;;;;;0.92;100.00;62095.78;4978552;28;20209;-80
2023/01/27 11:22:18;;;;;;;7.63;5.88;;;;;;;0.89;100.00;62089.69;4993377;28;20234;-81
2023/01/27 11:24:52;;;;;;;10.13;6.38;;;;;;;0.86;100.00;62092.13;4994552;28;20215;-82
2023/01/27 11:27:37;;;;;;;8.80;5.45;;;;;;;0.82;100.00;62087.53;4994673;28;20231;-82
2023/01/27 11:30:13;;;;;;;8.20;5.75;;;;;;;0.75;100.00;62075.34;4990034;28;20204;-82
2023/01/27 11:32:51;;;;;;;7.88;6.57;;;;;;;0.72;100.00;62075.28;4976811;28;20224;-84
2023/01/27 11:35:18;;;;;;;9.60;6.60;;;;;;;0.76;100.00;62076.88;4976446;28;20208;-83
2023/01/27 11:37:49;;;;;;;6.72;6.10;;;;;;;0.68;100.00;62070.66;4974784;28;20236;-82
2023/01/27 11:40:21;;;;;;;8.18;5.93;;;;;;;0.53;100.00;62053.31;4991420;28;20317;-81
2023/01/27 11:42:49;;;;;;;7.15;6.45;;;;;;;0.39;100.00;62035.94;4994927;28;20223;-79
2023/01/27 11:45:18;;;;;;;8.10;5.70;;;;;;;0.52;100.00;62054.78;4992278;28;20442;-81
2023/01/27 11:47:47;;;;;;;8.20;6.40;;;;;;;0.46;100.00;62048.63;4994151;28;20228;-81
2023/01/27 11:50:16;;;;;;;8.50;6.18;;;;;;;0.45;100.00;62044.59;4992936;28;20212;-79
2023/01/27 11:52:46;;;;;;;5.82;5.18;;;;;;;0.45;100.00;62042.59;4994636;28;20231;-82
2023/01/27 11:55:20;;;;;;;9.30;6.88;;;;;;;0.39;100.00;62036.44;4992463;28;20205;-79
2023/01/27 11:57:51;;;;;;;10.77;6.70;;;;;;;0.21;100.00;62015.47;4985370;28;20275;-84
2023/01/27 12:00:24;;;;;;;7.63;6.47;;;;;;;0.36;100.00;62035.88;4991301;28;20207;-80
2023/01/27 12:03:00;;;;;;;8.38;6.10;;;;;;;0.55;100.00;62055.34;4993910;28;20255;-82